Time;durP1;ratioP1;P1;durP2;ratioP2;P2;SDS_P1;SDS_P2;PMS_P1;PMS_P2;Temp;Humidity;BMP_temperature;BMP_pressure;BME280_temperature;BME280_humidity;BME280_pressure;Samples;Min_cycle;Max_cycle;Signal;HPM_P1;HPM_P2
2022/03/05 00:01:27;;;;;;;18.60;9.13;;;0.20;99.90;;;;;;4940493;28;20505;-79
2022/03/05 00:03:53;;;;;;;18.30;8.38;;;0.00;99.90;;;;;;4974889;28;20386;-79
2022/03/05 00:06:18;;;;;;;17.63;9.10;;;0.00;99.90;;;;;;4974980;28;20084;-79
2022/03/05 00:08:44;;;;;;;17.00;9.25;;;0.00;99.90;;;;;;4956844;28;20069;-78
2022/03/05 00:11:10;;;;;;;20.13;9.32;;;-0.30;99.90;;;;;;4973770;28;20038;-79
2022/03/05 00:13:36;;;;;;;16.65;8.95;;;-0.10;99.90;;;;;;4978346;28;20034;-78
2022/03/05 00:16:02;;;;;;;16.30;9.23;;;-0.30;99.90;;;;;;4960299;28;20035;-78
2022/03/05 00:18:28;;;;;;;16.50;8.85;;;1.20;99.90;;;;;;4954854;28;20032;-79
2022/03/05 00:20:54;;;;;;;17.38;8.70;;;-0.20;99.90;;;;;;4960133;28;20050;-78
2022/03/05 00:23:20;;;;;;;19.58;9.48;;;1.80;99.90;;;;;;4961507;28;20015;-78
2022/03/05 00:25:46;;;;;;;19.38;8.65;;;-0.20;99.90;;;;;;4944285;28;20042;-79
2022/03/05 00:28:12;;;;;;;17.23;8.82;;;0.00;99.90;;;;;;4961380;28;20396;-78
2022/03/05 00:30:38;;;;;;;16.27;8.18;;;-0.10;99.90;;;;;;4944304;28;20038;-79
2022/03/05 00:33:04;;;;;;;17.98;8.82;;;0.00;99.90;;;;;;4978717;28;20035;-79
2022/03/05 00:35:30;;;;;;;13.30;7.72;;;0.10;99.90;;;;;;4962403;28;20491;-78
2022/03/05 00:37:56;;;;;;;16.48;8.15;;;0.20;99.90;;;;;;4962394;28;20080;-79
2022/03/05 00:40:22;;;;;;;16.83;8.35;;;0.40;99.90;;;;;;4949820;28;20031;-78
2022/03/05 00:42:47;;;;;;;17.30;8.70;;;0.40;99.90;;;;;;4951783;28;20038;-77
2022/03/05 00:45:13;;;;;;;17.05;9.23;;;0.30;99.90;;;;;;4968041;28;20031;-77
2022/03/05 00:47:39;;;;;;;15.68;7.85;;;0.60;99.90;;;;;;4940082;29;20118;-78
2022/03/05 00:50:06;;;;;;;17.15;8.20;;;0.40;99.90;;;;;;4946956;28;20055;-78
2022/03/05 00:52:32;;;;;;;17.98;8.55;;;0.50;99.90;;;;;;4986754;28;20027;-78
2022/03/05 00:54:58;;;;;;;16.45;8.57;;;0.50;99.90;;;;;;4952514;28;20034;-78
2022/03/05 00:57:24;;;;;;;15.48;8.50;;;2.70;99.90;;;;;;4950236;28;20062;-79
2022/03/05 00:59:49;;;;;;;16.38;7.95;;;0.60;99.90;;;;;;4959568;28;20088;-79
2022/03/05 01:02:15;;;;;;;18.52;8.32;;;0.60;99.90;;;;;;4977340;28;20050;-78
2022/03/05 01:04:40;;;;;;;14.80;7.47;;;0.80;99.90;;;;;;4944731;28;20095;-79
2022/03/05 01:07:06;;;;;;;16.98;8.43;;;0.70;99.90;;;;;;4978106;28;20031;-79
2022/03/05 01:09:32;;;;;;;16.00;7.65;;;0.80;99.90;;;;;;4960109;28;20066;-79
2022/03/05 01:11:58;;;;;;;17.23;8.15;;;0.80;99.90;;;;;;4976837;28;20111;-79
2022/03/05 01:14:24;;;;;;;16.52;8.95;;;0.70;99.90;;;;;;4945238;28;20053;-79
2022/03/05 01:16:49;;;;;;;19.00;8.63;;;0.80;99.90;;;;;;4942680;28;20027;-79
2022/03/05 01:19:15;;;;;;;12.70;6.97;;;0.80;99.90;;;;;;4958390;28;20069;-79
2022/03/05 01:21:41;;;;;;;14.35;7.75;;;0.90;99.90;;;;;;4947123;28;20080;-80
2022/03/05 01:24:06;;;;;;;20.40;7.25;;;0.80;99.90;;;;;;4960273;28;20019;-79
2022/03/05 01:26:32;;;;;;;17.33;7.88;;;0.70;99.90;;;;;;4947342;28;20031;-78
2022/03/05 01:28:57;;;;;;;16.02;8.30;;;0.50;99.90;;;;;;4985993;28;20060;-77
2022/03/05 01:31:23;;;;;;;16.60;8.43;;;0.50;99.90;;;;;;4971435;28;20039;-79
2022/03/05 01:33:49;;;;;;;16.95;7.68;;;0.60;99.90;;;;;;4971493;28;20121;-78
2022/03/05 01:36:15;;;;;;;15.65;8.95;;;0.90;99.90;;;;;;4990568;28;20039;-79
2022/03/05 01:38:41;;;;;;;16.45;8.57;;;0.50;99.90;;;;;;4970294;28;20026;-78
2022/03/05 01:41:06;;;;;;;16.17;7.63;;;0.50;99.90;;;;;;4971141;28;20176;-78
2022/03/05 01:43:32;;;;;;;16.15;8.68;;;0.50;99.90;;;;;;4955364;28;20090;-77
2022/03/05 01:45:58;;;;;;;16.83;8.05;;;0.60;99.90;;;;;;4989408;28;20035;-80
2022/03/05 01:48:24;;;;;;;16.98;8.18;;;2.80;99.90;;;;;;4982549;28;20120;-80
2022/03/05 01:50:49;;;;;;;16.13;7.70;;;0.50;99.90;;;;;;4953732;29;20039;-79
2022/03/05 01:53:15;;;;;;;17.75;8.30;;;0.50;99.90;;;;;;4960733;28;20038;-79
2022/03/05 01:55:42;;;;;;;16.95;8.35;;;0.50;99.90;;;;;;4944580;28;20073;-78
2022/03/05 01:58:08;;;;;;;14.02;7.82;;;0.30;99.90;;;;;;4977176;28;20023;-79
2022/03/05 02:00:34;;;;;;;15.82;8.50;;;0.30;99.90;;;;;;4958677;28;20037;-79
2022/03/05 02:02:59;;;;;;;16.30;7.85;;;0.40;99.90;;;;;;4975379;28;20026;-79
2022/03/05 02:05:28;;;;;;;17.42;8.30;;;0.30;99.90;;;;;;4958977;28;20070;-79
2022/03/05 02:07:54;;;;;;;16.13;7.95;;;0.30;99.90;;;;;;4942767;28;20122;-79
2022/03/05 02:10:20;;;;;;;16.17;8.30;;;0.30;99.90;;;;;;4942046;28;20552;-78
2022/03/05 02:12:46;;;;;;;16.50;7.60;;;0.30;99.90;;;;;;4942382;28;20027;-78
2022/03/05 02:15:11;;;;;;;17.52;8.05;;;0.30;99.90;;;;;;4958917;28;20091;-78
2022/03/05 02:17:37;;;;;;;16.60;8.00;;;0.10;99.90;;;;;;4931920;29;20110;-79
2022/03/05 02:20:05;;;;;;;18.17;8.40;;;0.20;99.90;;;;;;4967861;28;20026;-79
2022/03/05 02:22:31;;;;;;;17.05;8.27;;;0.20;99.90;;;;;;4957963;28;20038;-79
2022/03/05 02:24:59;;;;;;;15.85;8.13;;;0.00;99.90;;;;;;4959354;28;20031;-78
2022/03/05 02:27:27;;;;;;;17.08;8.45;;;0.10;99.90;;;;;;4975800;28;20019;-79
2022/03/05 02:29:53;;;;;;;16.02;8.45;;;0.00;99.90;;;;;;4958111;28;20023;-78
2022/03/05 02:32:19;;;;;;;20.00;8.02;;;0.00;99.90;;;;;;4941812;28;20034;-78
2022/03/05 02:34:44;;;;;;;13.98;7.72;;;0.10;99.90;;;;;;4975125;28;20084;-78
2022/03/05 02:37:15;;;;;;;17.10;8.02;;;0.00;99.90;;;;;;4958717;28;20438;-79
2022/03/05 02:39:42;;;;;;;13.50;6.82;;;-0.10;99.90;;;;;;4957886;28;20053;-78
2022/03/05 02:42:08;;;;;;;14.95;7.85;;;-0.10;99.90;;;;;;4958035;28;20050;-78
2022/03/05 02:44:34;;;;;;;16.52;8.50;;;-0.10;99.90;;;;;;4975450;28;20035;-78
2022/03/05 02:46:59;;;;;;;14.30;7.50;;;-0.10;99.90;;;;;;4974376;28;20050;-79
2022/03/05 02:49:25;;;;;;;14.98;8.43;;;-0.10;99.90;;;;;;4974281;28;20035;-79
2022/03/05 02:51:51;;;;;;;16.38;9.23;;;-0.10;99.90;;;;;;4957944;28;20055;-78
2022/03/05 02:54:17;;;;;;;18.55;8.75;;;-0.20;99.90;;;;;;4975973;28;20387;-78
2022/03/05 02:56:43;;;;;;;15.48;8.45;;;-0.20;99.90;;;;;;4959069;28;20031;-78
2022/03/05 02:59:09;;;;;;;16.83;7.75;;;-0.20;99.90;;;;;;4976056;28;20483;-78
2022/03/05 03:01:35;;;;;;;14.98;7.53;;;-0.20;99.90;;;;;;4974874;28;20132;-78
2022/03/05 03:04:00;;;;;;;15.65;8.15;;;-0.20;99.90;;;;;;4958959;28;20031;-78
2022/03/05 03:06:26;;;;;;;16.75;7.43;;;-0.30;99.90;;;;;;4977251;28;20039;-78
2022/03/05 03:08:51;;;;;;;14.40;8.30;;;-0.40;99.90;;;;;;4939652;28;20121;-78
2022/03/05 03:11:17;;;;;;;16.73;8.45;;;-0.40;99.90;;;;;;4954596;28;20039;-78
2022/03/05 03:13:43;;;;;;;14.15;7.65;;;-0.50;99.90;;;;;;4958869;28;20447;-79
2022/03/05 03:16:09;;;;;;;16.20;8.15;;;-0.60;99.90;;;;;;4958830;28;20543;-78
2022/03/05 03:18:35;;;;;;;16.17;8.13;;;-0.70;99.90;;;;;;4956227;28;20034;-78
2022/03/05 03:21:00;;;;;;;17.25;8.90;;;-0.60;99.90;;;;;;4974344;28;20110;-78
2022/03/05 03:23:26;;;;;;;18.23;8.63;;;-0.70;99.90;;;;;;4957027;28;20023;-79
2022/03/05 03:25:52;;;;;;;16.27;7.97;;;-0.60;99.90;;;;;;4957584;28;20030;-78
2022/03/05 03:28:17;;;;;;;15.90;8.38;;;-0.70;99.90;;;;;;4941032;28;20431;-78
2022/03/05 03:30:43;;;;;;;18.58;8.18;;;-0.80;99.90;;;;;;4956762;28;20031;-79
2022/03/05 03:33:09;;;;;;;16.77;8.48;;;-1.00;99.90;;;;;;4955905;28;20031;-79
2022/03/05 03:35:34;;;;;;;14.60;8.45;;;-1.00;99.90;;;;;;4946388;28;20098;-79
2022/03/05 03:38:00;;;;;;;15.32;7.88;;;-0.90;99.90;;;;;;4944604;28;20407;-79
2022/03/05 03:40:26;;;;;;;14.27;8.70;;;-1.00;99.90;;;;;;4958820;28;20054;-79
2022/03/05 03:42:52;;;;;;;17.05;8.65;;;-1.00;99.90;;;;;;4960301;28;20095;-79
2022/03/05 03:45:18;;;;;;;14.10;8.07;;;-1.00;99.90;;;;;;4977079;28;20383;-80
2022/03/05 03:47:47;;;;;;;15.20;8.48;;;-1.00;99.90;;;;;;4961508;28;20483;-79
2022/03/05 03:50:14;;;;;;;16.27;8.65;;;-1.10;99.90;;;;;;4961856;28;20030;-79
2022/03/05 03:52:40;;;;;;;16.45;8.65;;;-0.90;99.90;;;;;;4962739;28;20042;-79
2022/03/05 03:55:10;;;;;;;16.00;8.10;;;-1.10;99.90;;;;;;4977294;28;20022;-79
2022/03/05 03:57:37;;;;;;;15.82;8.00;;;-1.10;99.90;;;;;;4960019;28;20023;-79
2022/03/05 04:00:07;;;;;;;15.32;8.50;;;-1.20;99.90;;;;;;4960650;28;20050;-79
2022/03/05 04:02:33;;;;;;;19.42;8.80;;;-1.20;99.90;;;;;;4960281;28;20031;-79
2022/03/05 04:04:58;;;;;;;19.65;9.32;;;-1.30;99.90;;;;;;4960883;28;20053;-79
2022/03/05 04:10:08;;;;;;;18.13;8.88;;;-1.20;99.90;;;;;;4979738;28;20084;-79
2022/03/05 04:12:35;;;;;;;17.00;8.30;;;-1.40;99.90;;;;;;4962694;28;20042;-80
2022/03/05 04:15:02;;;;;;;17.80;9.13;;;-1.40;99.90;;;;;;4962677;28;20033;-80
2022/03/05 04:17:27;;;;;;;15.20;7.95;;;-1.30;99.90;;;;;;4952726;28;20027;-79
2022/03/05 04:19:53;;;;;;;19.85;9.45;;;-1.40;99.90;;;;;;4943387;29;20027;-81
2022/03/05 04:22:19;;;;;;;20.33;9.32;;;-1.40;99.90;;;;;;4958030;28;20037;-81
2022/03/05 04:24:44;;;;;;;16.30;8.07;;;-1.50;99.90;;;;;;4979768;28;20031;-81
2022/03/05 04:27:10;;;;;;;18.48;9.00;;;-1.60;99.90;;;;;;4946471;28;20030;-81
2022/03/05 04:29:36;;;;;;;17.00;8.55;;;-1.70;99.90;;;;;;4963270;28;20034;-81
2022/03/05 04:32:01;;;;;;;21.50;9.30;;;-1.50;99.90;;;;;;4947204;28;20034;-82
2022/03/05 04:34:27;;;;;;;15.93;8.50;;;-1.60;99.90;;;;;;4947090;28;20507;-81
2022/03/05 04:36:53;;;;;;;20.13;9.40;;;-1.60;99.90;;;;;;4964155;28;20075;-80
2022/03/05 04:39:18;;;;;;;16.88;8.80;;;-1.70;99.90;;;;;;4963151;28;20387;-82
2022/03/05 04:41:44;;;;;;;15.10;7.85;;;-1.70;99.90;;;;;;4947624;28;20030;-82
2022/03/05 04:44:10;;;;;;;13.68;7.82;;;-1.60;99.90;;;;;;4968121;28;20037;-80
2022/03/05 04:46:35;;;;;;;15.30;8.63;;;-1.70;99.90;;;;;;4968001;28;20054;-80
2022/03/05 04:49:02;;;;;;;20.15;9.95;;;-1.60;99.90;;;;;;4950525;28;20066;-81
2022/03/05 04:51:27;;;;;;;18.38;9.15;;;-1.70;99.90;;;;;;4968732;28;20051;-81
2022/03/05 04:53:53;;;;;;;15.75;8.98;;;-1.60;99.90;;;;;;4970820;28;20031;-80
2022/03/05 04:56:19;;;;;;;18.48;9.20;;;-1.60;99.90;;;;;;4973593;28;20035;-81
2022/03/05 04:58:44;;;;;;;21.95;9.88;;;-1.70;99.90;;;;;;4957103;28;20039;-81
2022/03/05 05:01:10;;;;;;;17.15;9.35;;;-1.80;99.90;;;;;;4991262;28;20027;-81
2022/03/05 05:03:36;;;;;;;17.48;9.88;;;-1.90;99.90;;;;;;4974830;28;20034;-79
2022/03/05 05:06:01;;;;;;;19.27;9.85;;;-1.90;99.90;;;;;;4958948;28;20045;-80
2022/03/05 05:08:27;;;;;;;20.73;9.68;;;-1.50;99.90;;;;;;4953814;28;20038;-81
2022/03/05 05:10:53;;;;;;;23.80;10.18;;;-2.10;99.90;;;;;;4971036;28;20225;-80
2022/03/05 05:13:18;;;;;;;22.85;11.50;;;-2.20;99.90;;;;;;4957946;28;20050;-80
2022/03/05 05:15:45;;;;;;;23.33;9.45;;;-2.40;99.90;;;;;;4956123;28;20098;-80
2022/03/05 05:18:11;;;;;;;23.17;10.80;;;-2.30;99.90;;;;;;4953954;29;20027;-80
2022/03/05 05:20:37;;;;;;;22.23;9.85;;;-2.30;99.90;;;;;;4956366;28;20041;-80
2022/03/05 05:23:03;;;;;;;22.17;10.13;;;-2.40;99.90;;;;;;4953014;28;20080;-80
2022/03/05 05:25:28;;;;;;;19.02;9.95;;;-2.30;99.90;;;;;;4968386;28;20046;-80
2022/03/05 05:27:54;;;;;;;17.98;9.13;;;-2.10;99.90;;;;;;4951999;28;20035;-80
2022/03/05 05:30:20;;;;;;;19.75;9.65;;;-2.30;99.90;;;;;;4953501;28;20023;-80
2022/03/05 05:32:45;;;;;;;18.27;9.73;;;-2.50;99.90;;;;;;4966862;28;20495;-80
2022/03/05 05:35:11;;;;;;;20.05;10.40;;;-2.20;99.90;;;;;;4985252;28;20023;-79
2022/03/05 05:37:37;;;;;;;18.05;10.20;;;-2.30;99.90;;;;;;4966957;28;20034;-79
2022/03/05 05:40:03;;;;;;;18.58;9.80;;;-2.40;99.90;;;;;;4983345;28;20023;-80
2022/03/05 05:42:29;;;;;;;19.65;9.57;;;-2.40;99.90;;;;;;4966674;28;20035;-79
2022/03/05 05:44:54;;;;;;;21.55;9.90;;;-2.40;99.90;;;;;;4964568;28;20034;-79
2022/03/05 05:47:20;;;;;;;20.13;9.38;;;-2.50;99.90;;;;;;4957068;29;20043;-79
2022/03/05 05:49:46;;;;;;;18.17;9.23;;;-2.50;99.90;;;;;;4962481;28;20548;-79
2022/03/05 05:52:11;;;;;;;22.83;10.52;;;-2.40;99.90;;;;;;4964638;28;20069;-79
2022/03/05 05:54:37;;;;;;;20.00;10.10;;;-2.50;99.90;;;;;;4946300;28;20054;-78
2022/03/05 05:57:03;;;;;;;20.98;10.80;;;-2.40;99.90;;;;;;4961767;28;20035;-79
2022/03/05 05:59:30;;;;;;;22.27;10.50;;;-0.50;99.90;;;;;;4979811;28;20023;-78
2022/03/05 06:01:56;;;;;;;25.60;10.95;;;-2.50;99.90;;;;;;4960174;28;20130;-77
2022/03/05 06:04:21;;;;;;;21.23;10.60;;;-2.60;99.90;;;;;;4957288;28;20058;-78
2022/03/05 06:06:47;;;;;;;20.38;9.13;;;-2.60;99.90;;;;;;4977649;28;20042;-78
2022/03/05 06:09:12;;;;;;;18.48;10.10;;;-2.80;99.90;;;;;;4960174;28;20035;-78
2022/03/05 06:11:38;;;;;;;17.70;10.20;;;-2.50;99.90;;;;;;4977780;28;20114;-78
2022/03/05 06:14:05;;;;;;;20.45;10.35;;;-1.10;99.90;;;;;;4978404;28;20117;-78
2022/03/05 06:16:31;;;;;;;20.27;9.90;;;-2.50;99.90;;;;;;4976759;28;20030;-78
2022/03/05 06:18:57;;;;;;;19.15;10.32;;;-2.50;99.90;;;;;;4958900;28;20054;-77
2022/03/05 06:21:23;;;;;;;22.92;10.57;;;-2.60;99.90;;;;;;4976189;28;20089;-78
2022/03/05 06:23:48;;;;;;;20.65;10.15;;;-2.50;99.90;;;;;;4942069;28;20034;-79
2022/03/05 06:26:14;;;;;;;19.48;9.65;;;-2.30;99.90;;;;;;4943460;28;20059;-78
2022/03/05 06:28:40;;;;;;;18.23;10.10;;;-2.20;99.90;;;;;;4958492;28;20507;-77
2022/03/05 06:31:05;;;;;;;19.33;10.10;;;-2.20;99.90;;;;;;4976116;28;20084;-78
2022/03/05 06:33:31;;;;;;;20.95;10.93;;;-2.00;99.90;;;;;;4956332;28;20034;-77
2022/03/05 06:35:56;;;;;;;17.38;9.65;;;-2.10;99.90;;;;;;4954732;28;20035;-77
2022/03/05 06:38:22;;;;;;;19.98;11.05;;;-2.10;99.90;;;;;;4971656;28;20027;-77
2022/03/05 06:40:48;;;;;;;18.52;11.05;;;-2.20;99.90;;;;;;4972031;28;20038;-78
2022/03/05 06:43:15;;;;;;;17.85;10.02;;;-2.10;99.90;;;;;;4972458;28;20023;-77
2022/03/05 06:45:41;;;;;;;18.42;9.85;;;-2.10;99.90;;;;;;4972274;28;20031;-77
2022/03/05 06:48:07;;;;;;;17.60;9.77;;;-1.90;99.90;;;;;;4950567;28;20031;-77
2022/03/05 06:50:33;;;;;;;17.73;9.82;;;-1.80;99.90;;;;;;4970352;28;20035;-77
2022/03/05 06:52:59;;;;;;;22.75;10.15;;;-1.90;99.90;;;;;;4973650;28;20491;-78
2022/03/05 06:55:25;;;;;;;17.00;8.70;;;-1.80;99.90;;;;;;4956620;28;20096;-78
2022/03/05 06:57:51;;;;;;;21.40;10.02;;;-1.50;99.90;;;;;;4943147;28;20057;-78
2022/03/05 07:00:17;;;;;;;17.67;8.68;;;-1.50;99.90;;;;;;4941718;28;20097;-78
2022/03/05 07:02:43;;;;;;;20.55;10.23;;;-1.40;99.90;;;;;;4975585;28;20027;-77
2022/03/05 07:05:10;;;;;;;18.08;9.45;;;-1.30;99.90;;;;;;4958479;28;20027;-78
2022/03/05 07:07:36;;;;;;;21.65;10.18;;;-1.20;99.90;;;;;;4975191;28;20077;-77
2022/03/05 07:10:04;;;;;;;20.80;10.05;;;-1.10;99.90;;;;;;4957331;28;20030;-77
2022/03/05 07:12:29;;;;;;;20.15;9.93;;;-1.00;99.90;;;;;;4958396;28;20394;-78
2022/03/05 07:14:55;;;;;;;18.10;9.13;;;-0.80;99.90;;;;;;4974575;28;20026;-78
2022/03/05 07:17:20;;;;;;;20.77;11.02;;;-0.70;99.90;;;;;;4958511;28;20110;-77
2022/03/05 07:19:46;;;;;;;20.73;10.32;;;0.10;99.90;;;;;;4975851;28;20031;-77
2022/03/05 07:22:12;;;;;;;19.90;9.23;;;-0.80;99.90;;;;;;4959322;28;20031;-78
2022/03/05 07:24:38;;;;;;;17.50;9.27;;;-0.80;99.90;;;;;;4976448;28;20027;-78
2022/03/05 07:27:04;;;;;;;18.58;10.65;;;-0.50;99.90;;;;;;4976466;28;20027;-77
2022/03/05 07:29:30;;;;;;;19.27;9.70;;;0.20;99.90;;;;;;4958742;28;20027;-78
2022/03/05 07:31:56;;;;;;;17.65;9.48;;;1.00;99.90;;;;;;4958812;28;20441;-77
2022/03/05 07:34:21;;;;;;;21.75;10.43;;;2.00;99.90;;;;;;4959351;28;20495;-78
2022/03/05 07:36:47;;;;;;;21.27;10.23;;;-0.40;99.90;;;;;;4959399;28;20081;-77
2022/03/05 07:39:12;;;;;;;20.15;11.40;;;-0.20;99.90;;;;;;4943232;28;20038;-78
2022/03/05 07:41:38;;;;;;;18.52;10.68;;;-0.10;99.90;;;;;;4960773;28;20061;-78
2022/03/05 07:44:05;;;;;;;18.58;9.95;;;0.00;99.90;;;;;;4960087;28;20057;-78
2022/03/05 07:46:32;;;;;;;18.80;10.10;;;0.20;99.90;;;;;;4959540;28;20284;-78
2022/03/05 07:48:58;;;;;;;19.13;10.13;;;0.30;99.90;;;;;;4958530;28;20038;-78
2022/03/05 07:51:24;;;;;;;18.60;10.60;;;1.00;99.90;;;;;;4959730;28;20050;-78
2022/03/05 07:53:49;;;;;;;18.92;10.35;;;1.90;99.90;;;;;;4960027;28;20031;-78
2022/03/05 07:56:15;;;;;;;18.92;10.00;;;0.50;99.90;;;;;;4960310;28;20088;-78
2022/03/05 07:58:41;;;;;;;16.98;10.30;;;0.70;99.90;;;;;;4942656;28;20035;-78
2022/03/05 08:01:06;;;;;;;17.05;9.82;;;0.70;99.90;;;;;;4948147;28;20027;-78
2022/03/05 08:03:32;;;;;;;22.48;10.25;;;0.80;99.90;;;;;;4943339;28;20380;-79
2022/03/05 08:05:57;;;;;;;20.95;9.52;;;1.00;99.90;;;;;;4937286;29;20031;-79
2022/03/05 08:08:23;;;;;;;19.08;10.45;;;2.00;99.90;;;;;;4936965;28;20040;-79
2022/03/05 08:10:49;;;;;;;17.38;9.00;;;1.10;99.90;;;;;;4953711;28;20051;-79
2022/03/05 08:13:14;;;;;;;18.65;9.63;;;2.30;99.90;;;;;;4953505;28;20524;-79
2022/03/05 08:15:40;;;;;;;21.30;10.13;;;1.20;99.90;;;;;;4973215;28;20042;-79
2022/03/05 08:18:06;;;;;;;21.50;9.07;;;1.30;99.90;;;;;;4942345;28;20035;-79
2022/03/05 08:20:31;;;;;;;17.55;9.77;;;1.50;99.90;;;;;;4936628;29;20034;-79
2022/03/05 08:22:58;;;;;;;16.88;9.60;;;2.50;99.90;;;;;;4930220;28;20034;-79
2022/03/05 08:25:25;;;;;;;17.48;10.07;;;3.70;99.90;;;;;;4955968;28;20019;-79
2022/03/05 08:27:51;;;;;;;15.77;9.23;;;1.80;99.90;;;;;;4955679;28;20126;-79
2022/03/05 08:30:18;;;;;;;16.85;9.23;;;3.20;99.90;;;;;;4973430;28;20058;-78
2022/03/05 08:32:44;;;;;;;18.13;10.40;;;2.10;99.90;;;;;;4941525;28;20027;-79
2022/03/05 08:35:11;;;;;;;15.25;9.13;;;2.20;99.90;;;;;;4959620;28;20025;-79
2022/03/05 08:37:38;;;;;;;15.48;9.10;;;2.30;99.90;;;;;;4959616;28;20092;-79
2022/03/05 08:40:05;;;;;;;16.15;9.55;;;2.40;99.90;;;;;;4958848;28;20030;-79
2022/03/05 08:42:31;;;;;;;17.27;8.52;;;2.70;99.90;;;;;;4976667;28;20489;-79
2022/03/05 08:44:57;;;;;;;17.65;10.23;;;2.70;99.90;;;;;;4943766;28;20038;-78
2022/03/05 08:47:23;;;;;;;18.52;9.98;;;2.90;99.90;;;;;;4935035;28;20067;-79
2022/03/05 08:49:48;;;;;;;16.63;9.90;;;3.30;99.90;;;;;;4957050;29;20084;-79
2022/03/05 08:52:14;;;;;;;17.13;9.18;;;5.60;99.90;;;;;;4952156;28;20031;-79
2022/03/05 08:54:40;;;;;;;16.20;9.95;;;4.60;99.90;;;;;;4959540;28;20037;-79
2022/03/05 08:57:06;;;;;;;16.83;10.00;;;5.90;99.90;;;;;;4959101;28;20030;-79
2022/03/05 08:59:32;;;;;;;20.73;10.57;;;4.10;99.90;;;;;;4959467;28;20082;-78
2022/03/05 09:01:58;;;;;;;17.88;9.75;;;6.40;99.90;;;;;;4959067;28;20054;-78
2022/03/05 09:04:23;;;;;;;19.00;9.63;;;5.50;99.90;;;;;;4959251;28;20034;-79
2022/03/05 09:06:49;;;;;;;17.73;9.45;;;6.10;99.90;;;;;;4959645;28;20031;-79
2022/03/05 09:09:14;;;;;;;15.07;9.20;;;8.70;99.90;;;;;;4959787;28;20068;-79
2022/03/05 09:11:40;;;;;;;17.73;10.05;;;7.30;96.20;;;;;;4959022;28;20479;-80
2022/03/05 09:14:07;;;;;;;16.35;9.55;;;8.30;94.70;;;;;;4978285;28;20034;-79
2022/03/05 09:16:37;;;;;;;18.27;9.35;;;8.40;91.80;;;;;;4980728;28;20034;-78
2022/03/05 09:19:04;;;;;;;15.20;9.18;;;9.30;90.10;;;;;;4953331;29;20033;-79
2022/03/05 09:21:31;;;;;;;16.70;10.30;;;9.70;83.60;;;;;;4985683;28;20023;-78
2022/03/05 09:23:56;;;;;;;18.00;11.25;;;10.40;79.30;;;;;;4972195;28;20062;-79
2022/03/05 09:26:22;;;;;;;16.80;9.73;;;11.70;76.10;;;;;;4969284;28;20039;-80
2022/03/05 09:28:48;;;;;;;18.08;9.65;;;11.00;74.00;;;;;;4945529;28;20027;-80
2022/03/05 09:31:14;;;;;;;18.38;10.23;;;11.80;72.80;;;;;;4978652;28;20035;-79
2022/03/05 09:33:39;;;;;;;16.80;10.27;;;11.90;68.80;;;;;;4988243;28;20058;-78
2022/03/05 09:36:05;;;;;;;15.13;10.07;;;11.50;68.80;;;;;;4984773;23;20090;-76
2022/03/05 09:38:31;;;;;;;16.42;10.95;;;11.60;67.00;;;;;;4970922;28;20027;-77
2022/03/05 09:40:56;;;;;;;14.90;9.75;;;11.60;67.60;;;;;;4971657;28;20034;-77
2022/03/05 09:43:23;;;;;;;15.88;10.13;;;12.10;65.50;;;;;;4972116;28;20030;-76
2022/03/05 09:45:49;;;;;;;18.58;10.43;;;13.70;66.00;;;;;;4970488;28;20029;-77
2022/03/05 09:48:16;;;;;;;17.20;10.80;;;12.10;64.70;;;;;;4971196;28;20503;-77
2022/03/05 09:50:43;;;;;;;14.55;9.95;;;12.40;64.60;;;;;;4970639;28;20069;-76
2022/03/05 09:53:09;;;;;;;15.13;10.27;;;13.00;63.40;;;;;;4953949;28;20479;-77
2022/03/05 09:55:35;;;;;;;15.20;10.35;;;14.60;62.20;;;;;;4972651;28;20038;-78
2022/03/05 09:58:00;;;;;;;18.02;10.32;;;14.00;61.00;;;;;;4966719;28;20023;-78
2022/03/05 10:00:26;;;;;;;14.90;10.10;;;14.00;60.00;;;;;;4975165;28;20502;-78
2022/03/05 10:02:52;;;;;;;13.75;9.15;;;13.90;60.20;;;;;;4974998;28;20088;-78
2022/03/05 10:05:29;;;;;;;15.43;9.75;;;14.20;57.20;;;;;;4975351;28;20030;-78
2022/03/05 10:08:15;;;;;;;14.52;9.35;;;14.90;57.00;;;;;;4958214;28;20157;-78
2022/03/05 10:10:57;;;;;;;15.27;8.68;;;15.20;55.70;;;;;;4958013;28;20030;-79
2022/03/05 10:13:28;;;;;;;13.23;8.25;;;15.50;51.50;;;;;;4975363;28;20046;-79
2022/03/05 10:15:57;;;;;;;13.45;8.57;;;15.60;54.20;;;;;;4959049;28;20039;-79
2022/03/05 10:18:29;;;;;;;10.95;7.68;;;15.10;53.80;;;;;;4975690;28;20039;-79
2022/03/05 10:20:56;;;;;;;11.00;6.70;;;16.30;52.50;;;;;;4973148;28;20023;-79
2022/03/05 10:23:21;;;;;;;9.70;6.88;;;15.70;50.90;;;;;;4959083;28;20027;-79
2022/03/05 10:25:53;;;;;;;10.18;6.45;;;15.50;49.90;;;;;;4957988;28;20037;-77
2022/03/05 10:28:25;;;;;;;10.68;6.75;;;15.20;48.40;;;;;;4973664;28;20027;-77
2022/03/05 10:31:07;;;;;;;12.85;7.32;;;15.30;47.50;;;;;;4956181;28;20065;-77
2022/03/05 10:33:47;;;;;;;10.10;6.43;;;15.30;47.60;;;;;;4973238;28;20065;-77
2022/03/05 10:36:23;;;;;;;9.00;6.00;;;15.80;48.50;;;;;;4975184;28;20068;-78
2022/03/05 10:38:58;;;;;;;10.25;6.15;;;17.60;48.40;;;;;;4975754;28;20069;-78
2022/03/05 10:41:38;;;;;;;10.68;5.13;;;15.70;47.30;;;;;;4975652;28;20031;-79
2022/03/05 10:44:15;;;;;;;11.20;5.47;;;16.10;45.90;;;;;;4975945;28;20027;-79
2022/03/05 10:46:58;;;;;;;9.50;5.25;;;15.80;45.20;;;;;;4975732;28;20051;-78
2022/03/05 10:49:27;;;;;;;7.95;5.07;;;16.40;45.60;;;;;;4957881;28;20045;-79
2022/03/05 10:52:05;;;;;;;10.85;5.90;;;15.70;46.00;;;;;;4975718;28;20038;-79
2022/03/05 10:54:40;;;;;;;7.00;4.55;;;16.00;45.60;;;;;;4976412;28;20486;-79
2022/03/05 10:57:08;;;;;;;7.47;4.65;;;15.80;46.20;;;;;;4978980;28;20030;-78
2022/03/05 10:59:36;;;;;;;7.22;4.32;;;16.10;45.60;;;;;;4974587;28;20031;-78
2022/03/05 11:02:02;;;;;;;8.38;4.63;;;16.30;44.10;;;;;;4958184;28;20081;-78
2022/03/05 11:04:29;;;;;;;7.65;4.45;;;16.10;43.30;;;;;;4975222;28;20042;-79
2022/03/05 11:06:58;;;;;;;8.15;4.90;;;16.10;43.60;;;;;;4975671;28;20035;-81
2022/03/05 11:09:25;;;;;;;6.38;3.97;;;16.00;44.60;;;;;;4974719;28;20058;-79
2022/03/05 11:11:52;;;;;;;5.40;3.47;;;15.20;44.40;;;;;;4975955;28;20035;-79
2022/03/05 11:14:18;;;;;;;8.48;4.13;;;15.30;44.40;;;;;;4959061;28;20043;-78
2022/03/05 11:16:45;;;;;;;7.78;4.05;;;15.10;43.80;;;;;;4975402;28;20104;-79
2022/03/05 11:19:12;;;;;;;7.35;4.50;;;16.00;43.30;;;;;;4942410;28;20030;-79
2022/03/05 11:21:37;;;;;;;6.50;3.97;;;16.20;43.60;;;;;;4976285;28;20023;-79
2022/03/05 11:24:05;;;;;;;6.80;3.97;;;16.60;41.90;;;;;;4958910;28;20390;-79
2022/03/05 11:26:31;;;;;;;7.50;4.38;;;16.90;42.40;;;;;;4958417;28;20030;-78
2022/03/05 11:28:58;;;;;;;6.75;4.50;;;17.30;43.10;;;;;;4975290;28;20038;-79
2022/03/05 11:31:30;;;;;;;6.80;4.65;;;18.80;44.10;;;;;;4975287;28;20039;-79
2022/03/05 11:34:21;;;;;;;12.70;6.15;;;17.80;43.50;;;;;;4974270;28;20395;-78
2022/03/05 11:36:49;;;;;;;9.38;6.60;;;17.60;44.70;;;;;;4972756;28;20095;-78
2022/03/05 11:39:19;;;;;;;9.07;5.97;;;17.50;44.90;;;;;;4970399;28;20038;-78
2022/03/05 11:41:52;;;;;;;13.63;6.40;;;17.30;43.10;;;;;;4970174;28;20030;-77
2022/03/05 11:44:19;;;;;;;8.05;5.85;;;17.90;41.90;;;;;;4952771;28;20037;-77
2022/03/05 11:46:45;;;;;;;7.90;5.22;;;17.50;43.70;;;;;;4952657;28;20027;-79
2022/03/05 11:49:13;;;;;;;8.15;5.57;;;18.40;43.50;;;;;;4969173;28;20035;-78
2022/03/05 11:51:58;;;;;;;6.85;5.05;;;17.70;42.50;;;;;;4969881;28;20110;-78
2022/03/05 11:54:25;;;;;;;10.07;6.03;;;18.50;43.40;;;;;;4970077;28;20037;-78
2022/03/05 11:57:11;;;;;;;8.20;5.28;;;17.20;43.40;;;;;;4969984;28;20045;-79
2022/03/05 11:59:42;;;;;;;9.15;5.20;;;16.70;41.90;;;;;;4969630;28;20023;-79
2022/03/05 12:02:08;;;;;;;9.38;5.53;;;16.50;43.70;;;;;;4970058;28;20537;-79
2022/03/05 12:04:34;;;;;;;7.47;4.60;;;16.90;42.60;;;;;;4970083;28;20031;-79
2022/03/05 12:07:13;;;;;;;8.55;4.95;;;18.30;42.40;;;;;;4970269;28;20039;-79
2022/03/05 12:09:41;;;;;;;7.18;5.03;;;17.60;41.60;;;;;;4973235;28;20026;-79
2022/03/05 12:12:17;;;;;;;9.07;5.70;;;17.60;41.40;;;;;;4973543;28;20031;-79
2022/03/05 12:15:01;;;;;;;8.80;5.38;;;17.70;41.70;;;;;;4973040;28;20058;-78
2022/03/05 12:17:37;;;;;;;8.05;5.18;;;17.10;41.30;;;;;;4972746;28;20034;-79
2022/03/05 12:20:04;;;;;;;9.45;5.60;;;16.80;42.60;;;;;;4972874;28;20102;-79
2022/03/05 12:22:31;;;;;;;7.80;5.18;;;16.60;43.20;;;;;;4973417;28;20180;-79
2022/03/05 12:24:56;;;;;;;6.57;4.80;;;16.50;43.90;;;;;;4973217;28;20031;-79
2022/03/05 12:27:24;;;;;;;9.48;5.35;;;16.30;43.80;;;;;;4973739;28;20134;-79
2022/03/05 12:29:52;;;;;;;8.13;5.32;;;18.00;42.50;;;;;;4973066;28;20030;-79
2022/03/05 12:32:19;;;;;;;7.10;4.93;;;18.10;41.50;;;;;;4940958;28;20042;-77
2022/03/05 12:34:45;;;;;;;7.55;5.15;;;16.90;41.90;;;;;;4973577;28;20031;-77
2022/03/05 12:37:11;;;;;;;8.32;5.18;;;17.50;42.00;;;;;;4975617;28;20513;-79
2022/03/05 12:39:44;;;;;;;7.93;5.20;;;16.50;41.60;;;;;;4975727;28;20027;-79
2022/03/05 12:42:11;;;;;;;9.23;4.97;;;16.40;42.10;;;;;;4956843;28;20078;-79